Time;durP1;ratioP1;P1;durP2;ratioP2;P2;SDS_P1;SDS_P2;PMS_P1;PMS_P2;Temp;Humidity;BMP_temperature;BMP_pressure;BME280_temperature;BME280_humidity;BME280_pressure;Samples;Min_cycle;Max_cycle;Signal;HPM_P1;HPM_P2
2022/06/25 00:01:03;;;;;;;;;7.75;7.75;;;;;20.08;67.15;100751.84;5072689;28;8905;-67
2022/06/25 00:03:29;;;;;;;;;3.50;3.50;;;;;20.07;67.33;100755.66;5072430;28;8836;-67
2022/06/25 00:05:56;;;;;;;;;6.25;6.25;;;;;20.00;67.19;100746.84;5071825;28;9531;-67
2022/06/25 00:08:23;;;;;;;;;5.25;5.25;;;;;19.96;67.71;100741.06;5063390;28;8962;-66
2022/06/25 00:10:51;;;;;;;;;7.25;7.25;;;;;19.95;67.80;100746.81;5056848;28;8797;-67
2022/06/25 00:13:19;;;;;;;;;4.00;4.00;;;;;19.95;67.67;100749.53;5072107;28;8883;-67
2022/06/25 00:15:45;;;;;;;;;5.00;5.00;;;;;19.95;67.80;100755.00;5071996;28;8832;-67
2022/06/25 00:18:13;;;;;;;;;6.00;5.50;;;;;19.92;67.76;100748.13;5053901;28;8816;-67
2022/06/25 00:20:40;;;;;;;;;4.25;4.25;;;;;19.92;68.09;100752.78;5072056;28;8840;-67
2022/06/25 00:23:13;;;;;;;;;4.00;4.00;;;;;19.90;68.05;100747.59;5072075;28;9471;-67
2022/06/25 00:25:40;;;;;;;;;3.25;3.25;;;;;19.88;67.94;100751.66;5069572;28;8824;-66
2022/06/25 00:28:07;;;;;;;;;7.50;6.00;;;;;19.89;68.25;100756.88;5071634;28;8867;-67
2022/06/25 00:30:34;;;;;;;;;5.50;5.50;;;;;19.90;68.00;100757.69;5071698;28;8852;-66
2022/06/25 00:33:01;;;;;;;;;3.25;3.00;;;;;19.84;68.25;100754.06;5051332;28;8914;-67
2022/06/25 00:35:27;;;;;;;;;7.00;7.00;;;;;19.84;68.16;100748.59;5049533;28;8851;-67
2022/06/25 00:37:54;;;;;;;;;5.00;4.50;;;;;19.81;68.12;100751.88;5050533;28;8872;-67
2022/06/25 00:40:21;;;;;;;;;9.00;6.75;;;;;19.82;68.20;100749.97;5072868;28;8836;-67
2022/06/25 00:42:50;;;;;;;;;4.00;4.00;;;;;19.84;68.36;100753.25;5061913;28;8821;-67
2022/06/25 00:45:17;;;;;;;;;6.00;5.25;;;;;19.81;68.10;100757.34;5054116;28;8864;-66
2022/06/25 00:47:43;;;;;;;;;7.00;7.00;;;;;19.78;68.23;100752.38;5066375;28;8887;-67
2022/06/25 00:50:10;;;;;;;;;6.00;6.00;;;;;19.75;68.57;100753.72;5061836;28;8907;-66
2022/06/25 00:52:44;;;;;;;;;5.00;5.00;;;;;19.77;68.61;100761.66;5043668;28;8819;-67
2022/06/25 00:55:13;;;;;;;;;6.00;4.00;;;;;19.76;68.31;100763.56;5046744;28;8863;-67
2022/06/25 00:57:42;;;;;;;;;8.00;7.00;;;;;19.73;68.43;100764.09;5077526;28;8821;-67
2022/06/25 01:00:14;;;;;;;;;6.50;6.25;;;;;19.70;68.48;100770.06;5050725;28;8835;-66
2022/06/25 01:02:42;;;;;;;;;7.50;7.50;;;;;19.71;68.29;100770.88;5070083;28;8828;-63
2022/06/25 01:05:11;;;;;;;;;8.00;7.50;;;;;19.68;68.47;100785.03;5068489;28;8867;-66
2022/06/25 01:07:39;;;;;;;;;8.50;5.75;;;;;19.65;68.67;100786.38;5049111;28;8828;-65
2022/06/25 01:10:07;;;;;;;;;10.00;10.00;;;;;19.59;68.67;100787.38;5044623;28;8851;-67
2022/06/25 01:12:34;;;;;;;;;7.75;7.75;;;;;19.60;68.96;100786.28;5066774;28;9627;-67
2022/06/25 01:15:09;;;;;;;;;10.25;10.25;;;;;19.59;68.80;100784.63;5054259;28;9586;-67
2022/06/25 01:17:42;;;;;;;;;9.00;8.25;;;;;19.59;68.77;100795.56;5063135;28;8963;-67
2022/06/25 01:20:09;;;;;;;;;7.00;7.00;;;;;19.61;68.97;100798.91;5052109;28;8840;-62
2022/06/25 01:22:35;;;;;;;;;4.00;4.00;;;;;19.60;68.82;100789.00;5050527;28;8903;-67
2022/06/25 01:25:02;;;;;;;;;7.25;6.75;;;;;19.59;68.80;100794.75;5047015;28;8878;-66
2022/06/25 01:27:29;;;;;;;;;6.50;6.50;;;;;19.58;68.80;100791.19;5044268;28;9577;-67
2022/06/25 01:29:56;;;;;;;;;7.00;4.25;;;;;19.59;68.86;100792.81;5059028;28;8963;-66
2022/06/25 01:32:23;;;;;;;;;7.75;7.75;;;;;19.59;68.58;100801.03;5046524;28;8928;-67
2022/06/25 01:34:49;;;;;;;;;4.50;4.50;;;;;19.55;68.60;100801.78;5069005;28;8918;-67
2022/06/25 01:37:16;;;;;;;;;4.50;4.50;;;;;19.52;68.84;100803.94;5069057;28;8852;-67
2022/06/25 01:39:42;;;;;;;;;5.25;3.50;;;;;19.49;68.94;100801.72;5057727;28;9614;-67
2022/06/25 01:42:58;;;;;;;;;7.00;7.00;;;;;19.46;68.96;100799.50;5046615;28;8847;-66
2022/06/25 01:44:58;;;;;;;;;5.50;5.50;;;;;19.44;69.30;100798.91;5047449;28;9554;-66
2022/06/25 01:47:24;;;;;;;;;6.00;6.00;;;;;19.43;69.13;100807.38;5067292;28;9569;-67
2022/06/25 01:49:51;;;;;;;;;7.00;7.00;;;;;19.41;69.29;100807.63;5063488;28;8829;-67
2022/06/25 01:52:18;;;;;;;;;7.75;7.75;;;;;19.42;69.09;100806.56;5051274;28;8860;-67
2022/06/25 01:54:45;;;;;;;;;7.00;7.00;;;;;19.37;69.26;100806.50;5051027;28;8942;-67
2022/06/25 01:57:13;;;;;;;;;8.50;8.50;;;;;19.38;69.43;100804.59;5045767;28;8815;-64
2022/06/25 01:59:40;;;;;;;;;8.00;7.00;;;;;19.39;69.30;100814.41;5035929;28;8945;-64
2022/06/25 02:02:06;;;;;;;;;11.00;11.00;;;;;19.35;69.24;100805.09;5056818;28;8914;-64
2022/06/25 02:04:34;;;;;;;;;7.25;7.25;;;;;19.34;69.48;100814.38;5047671;28;8890;-63
2022/06/25 02:07:00;;;;;;;;;9.00;9.00;;;;;19.33;69.32;100815.44;5051326;28;8877;-64
2022/06/25 02:09:27;;;;;;;;;12.75;9.50;;;;;19.34;69.55;100812.47;5073297;28;8825;-64
2022/06/25 02:11:56;;;;;;;;;12.00;9.25;;;;;19.35;69.29;100816.81;5047138;28;8844;-64
2022/06/25 02:14:24;;;;;;;;;10.25;9.50;;;;;19.32;69.36;100819.22;5059504;28;8835;-67
2022/06/25 02:16:50;;;;;;;;;7.75;7.75;;;;;19.30;69.68;100818.69;5031865;28;8856;-66
2022/06/25 02:19:16;;;;;;;;;9.25;9.25;;;;;19.29;69.49;100826.03;5072851;28;9638;-66
2022/06/25 02:21:43;;;;;;;;;6.75;6.25;;;;;19.22;69.74;100823.47;5046209;28;8863;-67
2022/06/25 02:24:10;;;;;;;;;8.00;7.25;;;;;19.22;69.91;100831.69;5048334;28;8828;-67
2022/06/25 02:26:36;;;;;;;;;5.25;5.25;;;;;19.26;69.68;100829.28;5054861;28;8926;-67
2022/06/25 02:29:03;;;;;;;;;9.50;9.50;;;;;19.24;69.72;100832.25;5071501;28;8941;-66
2022/06/25 02:31:29;;;;;;;;;10.00;9.00;;;;;19.24;69.58;100839.59;5067409;28;8844;-66
2022/06/25 02:33:56;;;;;;;;;6.75;6.25;;;;;19.24;69.68;100842.31;5066029;28;8835;-67
2022/06/25 02:36:23;;;;;;;;;14.25;11.75;;;;;19.21;69.65;100842.84;5050953;28;8863;-66
2022/06/25 02:38:49;;;;;;;;;10.25;9.50;;;;;19.15;69.68;100844.66;5042242;28;8842;-67
2022/06/25 02:41:16;;;;;;;;;7.50;7.50;;;;;19.15;69.66;100841.94;5064226;28;8882;-64
2022/06/25 02:43:44;;;;;;;;;8.50;7.50;;;;;19.13;70.04;100854.19;5064261;28;8883;-65
2022/06/25 02:46:23;;;;;;;;;8.50;8.00;;;;;19.10;70.04;100850.06;5047419;28;8841;-65
2022/06/25 02:48:54;;;;;;;;;8.00;6.75;;;;;19.11;69.99;100859.06;5049317;28;8793;-65
2022/06/25 02:51:21;;;;;;;;;8.75;7.50;;;;;19.13;69.77;100859.66;5057684;28;8835;-65
2022/06/25 02:53:48;;;;;;;;;5.25;5.00;;;;;19.13;70.04;100856.94;5052954;28;9583;-65
2022/06/25 02:59:04;;;;;;;;;11.75;9.25;;;;;19.04;69.92;100864.72;5060807;28;8828;-65
2022/06/25 03:01:36;;;;;;;;;12.00;9.25;;;;;19.03;69.95;100869.31;5050291;28;9606;-65
2022/06/25 03:04:03;;;;;;;;;9.75;8.50;;;;;19.05;69.95;100866.34;5043911;28;9669;-65
2022/06/25 03:06:30;;;;;;;;;8.75;8.75;;;;;19.01;69.87;100865.22;5045874;28;8822;-64
2022/06/25 03:08:56;;;;;;;;;9.00;9.00;;;;;19.00;69.98;100869.03;5069611;28;9584;-65
2022/06/25 03:11:25;;;;;;;;;8.75;8.00;;;;;18.99;69.99;100862.72;5043464;28;8882;-65
2022/06/25 03:13:52;;;;;;;;;6.75;6.75;;;;;19.00;69.88;100872.56;5053354;28;8813;-64
2022/06/25 03:16:19;;;;;;;;;5.50;3.00;;;;;19.02;69.96;100872.31;5055485;28;8822;-64
2022/06/25 03:18:49;;;;;;;;;9.00;8.50;;;;;19.02;69.58;100866.84;5049094;28;8957;-65
2022/06/25 03:21:45;;;;;;;;;9.00;9.00;;;;;19.01;69.86;100873.38;5053640;28;8953;-64
2022/06/25 03:24:14;;;;;;;;;5.75;5.75;;;;;19.00;69.94;100878.03;5049678;28;8836;-64
2022/06/25 03:26:41;;;;;;;;;9.75;8.25;;;;;18.95;70.05;100885.28;5076453;28;8875;-65
2022/06/25 03:29:08;;;;;;;;;6.25;6.00;;;;;18.94;70.08;100883.63;5049194;28;8852;-65
2022/06/25 03:31:35;;;;;;;;;8.00;6.75;;;;;18.96;70.00;100895.16;5059083;28;8866;-65
2022/06/25 03:34:21;;;;;;;;;8.25;8.00;;;;;18.95;69.86;100894.28;5060751;28;8824;-64
2022/06/25 03:36:49;;;;;;;;;10.75;10.75;;;;;18.91;70.01;100893.13;5052101;28;8909;-65
2022/06/25 03:39:16;;;;;;;;;8.75;8.75;;;;;18.88;70.17;100892.81;5049777;28;8861;-65
2022/06/25 03:41:43;;;;;;;;;7.75;7.75;;;;;18.83;70.44;100896.28;5040926;28;8835;-64
2022/06/25 03:44:35;;;;;;;;;6.50;6.50;;;;;18.83;70.51;100898.19;5052423;28;8864;-64
2022/06/25 03:47:10;;;;;;;;;8.25;7.00;;;;;18.84;70.34;100895.22;5052937;28;9567;-65
2022/06/25 03:49:37;;;;;;;;;9.00;8.00;;;;;18.82;70.24;100899.25;5066122;28;8808;-65
2022/06/25 03:52:08;;;;;;;;;6.75;6.75;;;;;18.84;70.33;100902.56;5054634;28;8859;-65
2022/06/25 03:54:35;;;;;;;;;4.25;4.25;;;;;18.84;70.48;100908.88;5076383;28;8836;-65
2022/06/25 03:57:03;;;;;;;;;10.75;9.25;;;;;18.84;70.38;100897.09;5051877;28;8843;-65
2022/06/25 03:59:44;;;;;;;;;8.25;8.25;;;;;18.85;70.31;100912.41;5059005;28;8855;-65
2022/06/25 04:02:23;;;;;;;;;8.00;8.00;;;;;18.83;70.28;100901.72;5046471;28;8959;-65
2022/06/25 04:05:13;;;;;;;;;10.00;5.00;;;;;18.84;70.46;100892.50;5037044;28;8833;-65
2022/06/25 04:07:41;;;;;;;;;14.75;9.00;;;;;18.92;70.36;100900.25;5052818;28;8860;-65
2022/06/25 04:10:07;;;;;;;;;8.25;8.00;;;;;19.18;70.04;100906.13;5043036;28;8843;-64
2022/06/25 04:12:34;;;;;;;;;8.50;7.00;;;;;19.26;69.16;100900.22;5046834;28;8871;-65
2022/06/25 04:15:01;;;;;;;;;6.25;6.00;;;;;19.26;69.22;100906.50;5047441;28;8829;-64
2022/06/25 04:17:27;;;;;;;;;9.75;8.75;;;;;19.23;69.11;100900.72;5048812;28;8958;-64
2022/06/25 04:19:56;;;;;;;;;5.00;5.00;;;;;19.21;69.24;100905.63;5050595;28;9605;-63
2022/06/25 04:22:22;;;;;;;;;9.00;9.00;;;;;19.15;69.05;100904.69;5057346;28;8859;-64
2022/06/25 04:24:49;;;;;;;;;5.75;5.75;;;;;19.12;68.86;100905.22;5060388;28;8887;-64
2022/06/25 04:30:03;;;;;;;;;7.25;7.25;;;;;19.14;68.83;100913.97;5045539;28;8832;-64
2022/06/25 04:32:30;;;;;;;;;6.50;5.75;;;;;19.12;68.50;100904.38;5041275;28;8851;-64
2022/06/25 04:35:08;;;;;;;;;8.25;5.25;;;;;19.09;68.68;100916.63;5050770;28;8910;-64
2022/06/25 04:37:38;;;;;;;;;5.75;5.75;;;;;19.10;68.46;100912.00;5045304;28;8843;-64
2022/06/25 04:40:05;;;;;;;;;4.00;4.00;;;;;19.14;68.36;100918.59;5049344;28;8908;-64
2022/06/25 04:42:32;;;;;;;;;9.50;7.00;;;;;19.14;68.08;100922.16;5047423;28;8920;-64
2022/06/25 04:44:59;;;;;;;;;5.25;5.25;;;;;19.13;68.10;100925.16;5056099;28;8955;-64
2022/06/25 04:47:28;;;;;;;;;5.25;3.75;;;;;19.11;67.70;100925.38;5041027;28;9594;-64
2022/06/25 04:50:10;;;;;;;;;8.25;7.50;;;;;19.06;68.05;100938.94;5035734;28;8910;-64
2022/06/25 04:52:37;;;;;;;;;5.50;4.50;;;;;19.01;67.85;100931.50;5047624;28;8947;-64
2022/06/25 04:55:04;;;;;;;;;8.00;7.50;;;;;18.94;67.72;100935.47;5051416;28;8910;-64
2022/06/25 04:57:31;;;;;;;;;9.75;7.75;;;;;18.92;67.43;100929.41;5043595;28;8844;-64
2022/06/25 05:00:21;;;;;;;;;5.75;2.75;;;;;18.97;67.44;100940.44;5032702;28;8927;-64
2022/06/25 05:02:48;;;;;;;;;4.00;4.00;;;;;18.99;67.55;100943.72;5044760;28;8819;-64
2022/06/25 05:05:15;;;;;;;;;5.25;3.00;;;;;19.06;67.44;100944.41;5051173;28;8855;-64
2022/06/25 05:07:41;;;;;;;;;2.50;2.50;;;;;19.10;67.23;100948.28;5045971;28;8832;-64
2022/06/25 05:10:09;;;;;;;;;4.00;4.00;;;;;19.15;67.03;100948.34;5046006;28;8964;-64
2022/06/25 05:15:21;;;;;;;;;5.75;5.50;;;;;19.15;67.21;100956.53;5067509;28;8839;-64
2022/06/25 05:17:48;;;;;;;;;6.25;5.75;;;;;19.15;67.14;100962.00;5044315;28;8846;-64
2022/06/25 05:20:18;;;;;;;;;6.25;6.25;;;;;19.10;67.36;100961.94;5052962;28;8859;-64
2022/06/25 05:22:45;;;;;;;;;7.75;7.75;;;;;19.08;67.45;100960.50;5065179;28;9625;-64
2022/06/25 05:25:11;;;;;;;;;5.50;3.50;;;;;19.07;67.49;100954.22;5042633;28;8954;-64
2022/06/25 05:27:38;;;;;;;;;5.75;5.75;;;;;19.08;67.40;100961.38;5057484;28;8813;-64
2022/06/25 05:30:06;;;;;;;;;6.00;6.00;;;;;19.06;67.50;100962.69;5068651;28;8828;-64
2022/06/25 05:32:32;;;;;;;;;9.50;8.00;;;;;19.03;67.36;100973.00;5049497;28;8851;-64
2022/06/25 05:34:59;;;;;;;;;5.75;5.75;;;;;18.97;67.47;100971.28;5058325;28;8834;-64
2022/06/25 05:37:25;;;;;;;;;7.50;7.50;;;;;18.93;67.61;100972.84;5048373;28;8841;-64
2022/06/25 05:39:52;;;;;;;;;6.00;4.00;;;;;18.94;67.71;100984.56;5054000;28;8805;-64
2022/06/25 05:42:20;;;;;;;;;6.75;5.75;;;;;18.98;67.51;100988.47;5072759;28;8840;-64
2022/06/25 05:44:47;;;;;;;;;5.75;4.25;;;;;19.03;67.63;100992.09;5067831;28;8837;-63
2022/06/25 05:47:14;;;;;;;;;4.50;4.50;;;;;19.09;67.26;100995.75;5069281;28;8954;-64
2022/06/25 05:49:40;;;;;;;;;6.50;6.50;;;;;19.12;67.22;100997.13;5069826;28;9567;-64
2022/06/25 05:52:07;;;;;;;;;7.50;6.50;;;;;19.23;67.19;100998.97;5068431;28;9582;-64
2022/06/25 05:54:33;;;;;;;;;7.75;7.75;;;;;19.32;66.80;100999.38;5063035;28;8809;-64
2022/06/25 05:57:00;;;;;;;;;5.00;5.00;;;;;19.38;66.77;100993.75;5058342;28;8828;-64
2022/06/25 05:59:26;;;;;;;;;3.00;3.00;;;;;19.50;66.49;101004.59;5065956;28;8918;-64
2022/06/25 06:01:52;;;;;;;;;7.00;7.00;;;;;19.56;66.31;101002.75;5061033;28;8831;-64
2022/06/25 06:04:19;;;;;;;;;7.50;4.75;;;;;19.63;65.85;101007.00;5063912;28;8836;-64
2022/06/25 06:06:45;;;;;;;;;7.50;7.00;;;;;19.67;65.62;101005.44;5069171;28;8825;-65
2022/06/25 06:09:12;;;;;;;;;3.00;3.00;;;;;19.69;65.49;101007.94;5062394;28;8803;-64
2022/06/25 06:11:38;;;;;;;;;8.25;7.25;;;;;19.73;65.60;100998.97;5068748;28;8893;-64
2022/06/25 06:14:05;;;;;;;;;3.00;3.00;;;;;19.74;65.30;101010.72;5070190;28;8898;-64
2022/06/25 06:16:31;;;;;;;;;3.00;3.00;;;;;19.79;65.49;101010.78;5069107;28;8825;-64
2022/06/25 06:18:58;;;;;;;;;5.00;3.50;;;;;19.89;65.34;101008.22;5050685;28;8839;-64
2022/06/25 06:21:24;;;;;;;;;3.00;3.00;;;;;19.96;65.10;101008.84;5064051;28;9589;-64
2022/06/25 06:23:51;;;;;;;;;6.75;5.75;;;;;19.96;65.00;101014.31;5058721;28;8828;-64
2022/06/25 06:26:17;;;;;;;;;4.25;3.50;;;;;19.95;64.90;101022.75;5068047;28;8852;-64
2022/06/25 06:28:44;;;;;;;;;6.00;6.00;;;;;19.94;64.72;101015.66;5061092;28;8809;-64
2022/06/25 06:31:11;;;;;;;;;3.25;2.25;;;;;19.99;64.71;101018.44;5067576;28;8833;-64
2022/06/25 06:33:37;;;;;;;;;4.00;4.00;;;;;20.05;64.55;101016.59;5069047;28;8933;-65
2022/06/25 06:36:04;;;;;;;;;4.00;4.00;;;;;20.05;64.10;101022.88;5063142;28;8977;-65
2022/06/25 06:38:30;;;;;;;;;4.50;4.50;;;;;20.06;64.05;101013.63;5071088;28;8824;-65
2022/06/25 06:40:57;;;;;;;;;7.00;7.00;;;;;20.08;63.91;101024.31;5065278;28;8936;-64
2022/06/25 06:43:23;;;;;;;;;4.75;4.75;;;;;20.08;63.90;101024.31;5067830;28;8903;-64
2022/06/25 06:45:50;;;;;;;;;4.75;4.75;;;;;20.09;63.82;101018.56;5063849;28;8829;-65
2022/06/25 06:48:16;;;;;;;;;7.50;7.50;;;;;20.10;63.68;101027.63;5058249;28;8848;-64
2022/06/25 06:50:43;;;;;;;;;6.50;6.00;;;;;20.15;63.67;101028.50;5071129;28;8836;-65
2022/06/25 06:53:09;;;;;;;;;6.25;6.25;;;;;20.22;63.68;101031.06;5066536;28;9592;-64
2022/06/25 06:55:36;;;;;;;;;3.00;3.00;;;;;20.31;63.63;101035.00;5069858;28;8836;-64
2022/06/25 06:58:02;;;;;;;;;3.00;3.00;;;;;20.36;63.41;101028.75;5068772;28;8835;-64
2022/06/25 07:00:29;;;;;;;;;4.25;4.25;;;;;20.43;63.32;101034.88;5064129;28;8816;-64
2022/06/25 07:02:55;;;;;;;;;5.00;5.00;;;;;20.44;63.11;101039.25;5062503;28;8880;-64
2022/06/25 07:05:22;;;;;;;;;3.75;3.75;;;;;20.43;62.95;101035.69;5071847;28;8800;-65
2022/06/25 07:07:48;;;;;;;;;6.00;4.25;;;;;20.40;63.17;101044.41;5071092;28;8841;-64
2022/06/25 07:10:15;;;;;;;;;9.75;8.00;;;;;20.39;63.33;101040.03;5065917;28;8820;-64
2022/06/25 07:12:42;;;;;;;;;6.00;5.25;;;;;20.37;63.31;101038.59;5065349;28;8829;-64
2022/06/25 07:15:09;;;;;;;;;6.00;6.00;;;;;20.39;63.18;101045.47;5062754;28;9531;-64
2022/06/25 07:17:35;;;;;;;;;6.50;6.25;;;;;20.41;63.08;101042.47;5071131;28;8925;-65
2022/06/25 07:20:02;;;;;;;;;7.50;4.25;;;;;20.41;63.03;101045.22;5071235;28;8824;-65
2022/06/25 07:22:29;;;;;;;;;8.75;8.00;;;;;20.39;63.30;101047.41;5066337;28;8909;-65
2022/06/25 07:24:55;;;;;;;;;7.25;7.00;;;;;20.35;63.51;101054.47;5067925;28;8890;-65
2022/06/25 07:27:22;;;;;;;;;6.00;6.00;;;;;20.34;63.47;101050.06;5077486;28;8919;-65
2022/06/25 07:29:48;;;;;;;;;6.00;5.75;;;;;20.36;63.58;101056.91;5071136;28;8824;-64
2022/06/25 07:32:15;;;;;;;;;8.00;8.00;;;;;20.38;63.60;101057.50;5073394;28;8917;-65
2022/06/25 07:34:42;;;;;;;;;8.00;8.00;;;;;20.37;63.35;101066.78;5072044;28;8816;-65
2022/06/25 07:37:08;;;;;;;;;7.50;7.50;;;;;20.31;63.35;101065.06;5049122;28;8851;-64
2022/06/25 07:39:35;;;;;;;;;10.50;9.50;;;;;20.32;63.52;101069.44;5063859;28;8832;-64
2022/06/25 07:42:01;;;;;;;;;6.75;6.75;;;;;20.32;63.48;101066.72;5069972;28;8921;-65
2022/06/25 07:44:28;;;;;;;;;8.50;7.00;;;;;20.35;63.81;101065.41;5051183;28;8853;-66
2022/06/25 07:46:54;;;;;;;;;4.00;3.75;;;;;20.44;63.87;101075.63;5068969;28;8836;-64
2022/06/25 07:49:21;;;;;;;;;10.00;9.75;;;;;20.47;63.59;101069.66;5067601;28;8824;-64
2022/06/25 07:51:56;;;;;;;;;6.75;5.25;;;;;20.49;63.28;101066.69;5072344;28;8856;-65
2022/06/25 07:54:24;;;;;;;;;8.75;8.00;;;;;20.52;63.30;101071.66;5070105;28;8809;-64
2022/06/25 07:56:51;;;;;;;;;4.00;4.00;;;;;20.55;63.21;101076.63;5071461;28;8848;-64
2022/06/25 07:59:18;;;;;;;;;6.75;6.75;;;;;20.63;63.46;101084.38;5071397;28;8860;-64
2022/06/25 08:01:44;;;;;;;;;7.75;7.00;;;;;20.61;63.42;101086.53;5066669;28;8820;-65
2022/06/25 08:04:11;;;;;;;;;6.25;6.25;;;;;20.57;63.35;101082.63;5065633;28;8824;-64
2022/06/25 08:06:41;;;;;;;;;5.75;5.75;;;;;20.60;63.52;101084.88;5058130;28;8863;-64
2022/06/25 08:09:08;;;;;;;;;7.00;7.00;;;;;20.60;63.61;101079.41;5063452;28;8941;-65
2022/06/25 08:11:35;;;;;;;;;6.75;5.75;;;;;20.62;63.57;101084.59;5072150;28;8859;-65
2022/06/25 08:14:03;;;;;;;;;7.75;7.50;;;;;20.61;63.56;101086.53;5063057;28;8892;-65
2022/06/25 08:16:30;;;;;;;;;10.75;10.75;;;;;20.57;62.89;101090.03;5060257;28;9618;-65
2022/06/25 08:18:56;;;;;;;;;8.75;8.75;;;;;20.52;62.78;101087.22;5060650;28;8831;-64
2022/06/25 08:21:23;;;;;;;;;11.00;10.50;;;;;20.47;62.68;101087.97;5063859;28;9496;-65
2022/06/25 08:23:49;;;;;;;;;13.50;11.25;;;;;20.37;62.76;101085.91;5070612;28;8828;-65
2022/06/25 08:26:16;;;;;;;;;13.25;13.00;;;;;20.43;62.70;101090.38;5071249;28;8907;-65
2022/06/25 08:28:44;;;;;;;;;11.75;11.75;;;;;20.55;62.35;101095.75;5071899;28;8836;-64
2022/06/25 08:31:11;;;;;;;;;12.75;12.75;;;;;20.62;62.37;101096.41;5063625;28;8924;-65
2022/06/25 08:33:38;;;;;;;;;10.00;10.00;;;;;20.72;62.20;101091.03;5066914;28;9842;-65
2022/06/25 08:36:04;;;;;;;;;14.25;10.50;;;;;20.80;62.28;101103.44;5068646;28;8851;-65
2022/06/25 08:38:31;;;;;;;;;11.00;11.00;;;;;20.85;61.88;101097.19;5071585;28;8863;-65
2022/06/25 08:41:00;;;;;;;;;12.50;11.00;;;;;20.83;61.31;101097.47;5069790;28;8875;-65
2022/06/25 08:43:26;;;;;;;;;10.50;9.75;;;;;20.87;61.45;101103.25;5071853;28;9772;-64
2022/06/25 08:45:55;;;;;;;;;15.00;11.00;;;;;20.83;61.49;101111.16;5071420;28;8837;-65
2022/06/25 08:48:30;;;;;;;;;9.00;9.00;;;;;20.85;61.54;101099.94;5067842;28;8863;-65
2022/06/25 08:50:59;;;;;;;;;7.00;5.00;;;;;20.84;61.55;101101.03;5067521;28;8874;-64
2022/06/25 08:53:33;;;;;;;;;4.25;3.25;;;;;20.78;61.90;101108.31;5064435;28;8819;-64
2022/06/25 08:56:01;;;;;;;;;4.00;4.00;;;;;20.71;62.33;101113.19;5070130;28;9534;-64
2022/06/25 08:58:28;;;;;;;;;3.75;3.75;;;;;20.63;62.49;101111.72;5071240;28;8852;-65
2022/06/25 09:00:55;;;;;;;;;4.00;4.00;;;;;20.48;63.06;101112.34;5067939;28;8853;-65
2022/06/25 09:03:21;;;;;;;;;3.50;3.50;;;;;20.40;63.53;101129.16;5068437;28;8856;-65
2022/06/25 09:05:48;;;;;;;;;2.25;1.75;;;;;20.31;63.63;101133.41;5058290;28;9547;-64
2022/06/25 09:08:16;;;;;;;;;1.00;1.00;;;;;20.25;64.03;101137.13;5064962;28;8867;-65
2022/06/25 09:10:45;;;;;;;;;1.75;0.50;;;;;20.20;64.71;101131.59;5065668;28;8817;-65
2022/06/25 09:13:13;;;;;;;;;0.00;0.00;;;;;20.21;64.87;101133.25;5062823;28;8831;-65
2022/06/25 09:15:41;;;;;;;;;0.75;0.75;;;;;20.23;64.88;101133.84;5075705;28;8840;-65
2022/06/25 09:18:19;;;;;;;;;1.00;1.00;;;;;20.23;64.72;101139.31;5063474;28;8901;-64
2022/06/25 09:21:07;;;;;;;;;1.00;1.00;;;;;20.18;64.79;101136.50;5069618;28;8870;-65
2022/06/25 09:24:00;;;;;;;;;2.25;2.25;;;;;20.18;64.64;101134.59;5067323;28;8844;-64
2022/06/25 09:26:27;;;;;;;;;1.00;1.00;;;;;20.21;64.62;101136.00;5070017;28;8840;-64
2022/06/25 09:28:59;;;;;;;;;2.75;2.50;;;;;20.31;64.23;101138.88;5070287;28;8901;-64
2022/06/25 09:31:37;;;;;;;;;2.00;2.00;;;;;20.36;64.18;101135.38;5070297;28;8881;-65
2022/06/25 09:34:10;;;;;;;;;2.75;2.75;;;;;20.38;64.35;101141.44;5078462;27;13470;-66
2022/06/25 09:36:36;;;;;;;;;3.25;3.25;;;;;20.42;64.12;101143.41;5058044;28;8980;-66
2022/06/25 09:39:04;;;;;;;;;2.00;2.00;;;;;20.45;63.53;101133.88;5063464;28;9568;-66
2022/06/25 09:41:57;;;;;;;;;2.00;2.00;;;;;20.46;63.55;101132.81;5058230;28;8922;-66
2022/06/25 09:44:24;;;;;;;;;3.00;3.00;;;;;20.59;63.64;101127.00;5059896;28;8914;-66
2022/06/25 09:46:55;;;;;;;;;3.00;3.00;;;;;20.56;63.41;101123.94;5060905;28;8923;-66
2022/06/25 09:49:22;;;;;;;;;3.00;2.25;;;;;20.59;63.59;101126.16;5065808;28;8829;-64
2022/06/25 09:51:59;;;;;;;;;4.00;4.00;;;;;20.66;63.59;101130.38;5050306;28;8840;-64
2022/06/25 09:54:25;;;;;;;;;3.25;2.75;;;;;20.72;63.40;101132.06;5066559;28;8837;-64
2022/06/25 09:56:53;;;;;;;;;5.75;4.75;;;;;20.69;63.22;101138.03;5050951;28;8910;-64
2022/06/25 09:59:23;;;;;;;;;5.75;4.75;;;;;20.72;63.32;101140.28;5045946;28;9646;-64
2022/06/25 10:01:49;;;;;;;;;5.25;5.00;;;;;20.75;63.59;101136.22;5057063;28;8917;-64
2022/06/25 10:04:17;;;;;;;;;9.00;8.75;;;;;20.72;63.55;101131.25;5061544;28;8818;-64
2022/06/25 10:06:45;;;;;;;;;5.25;4.00;;;;;20.67;63.58;101132.03;5054681;28;8890;-63
2022/06/25 10:09:14;;;;;;;;;4.00;3.50;;;;;20.67;63.79;101137.50;5052736;28;8836;-63
2022/06/25 10:11:40;;;;;;;;;7.25;4.00;;;;;20.67;63.63;101139.41;5050072;28;8885;-63
2022/06/25 10:14:07;;;;;;;;;8.00;7.00;;;;;20.63;63.69;101139.06;5066060;28;8845;-66
2022/06/25 10:16:34;;;;;;;;;5.25;5.25;;;;;20.59;63.70;101143.41;5064885;28;8838;-66
2022/06/25 10:19:03;;;;;;;;;5.50;5.50;;;;;20.59;63.72;101151.59;5048121;28;8916;-67
2022/06/25 10:21:30;;;;;;;;;5.75;4.75;;;;;20.59;63.83;101153.53;5046431;28;8867;-66
2022/06/25 10:24:01;;;;;;;;;7.50;7.50;;;;;20.55;63.17;101152.38;5054259;28;8822;-66
2022/06/25 10:26:28;;;;;;;;;10.75;10.00;;;;;20.50;63.17;101150.41;5057779;28;8840;-66
2022/06/25 10:28:55;;;;;;;;;7.50;5.75;;;;;20.53;63.11;101155.34;5063744;28;9525;-65
2022/06/25 10:31:21;;;;;;;;;6.25;6.25;;;;;20.58;62.99;101160.91;5064360;28;8826;-65
2022/06/25 10:34:04;;;;;;;;;7.25;7.00;;;;;20.62;63.12;101159.31;5083249;28;9078;-65
2022/06/25 10:36:41;;;;;;;;;4.00;4.00;;;;;20.55;62.90;101168.78;5073202;28;8947;-65
2022/06/25 10:39:22;;;;;;;;;5.75;3.75;;;;;20.55;63.08;101174.25;5071566;28;8818;-65
2022/06/25 10:45:14;;;;;;;;;2.25;2.25;;;;;20.79;61.44;101169.38;5073088;28;8835;-66
2022/06/25 10:47:42;;;;;;;;;2.25;2.00;;;;;20.81;60.30;101178.13;5067197;28;8819;-66
2022/06/25 10:50:29;;;;;;;;;0.50;0.50;;;;;20.82;60.01;101179.78;5069362;28;8823;-66
2022/06/25 10:53:01;;;;;;;;;1.00;1.00;;;;;20.82;59.63;101179.78;5063896;28;8838;-66
2022/06/25 10:55:34;;;;;;;;;2.50;2.50;;;;;20.80;59.14;101177.31;5063513;28;9209;-65
2022/06/25 10:58:11;;;;;;;;;3.50;3.00;;;;;20.74;58.52;101187.38;5052286;28;9579;-66
2022/06/25 11:00:58;;;;;;;;;1.75;1.75;;;;;20.76;58.11;101186.28;5055515;28;8902;-66
2022/06/25 11:03:28;;;;;;;;;2.00;2.00;;;;;20.79;57.21;101186.63;5059992;28;8907;-65
2022/06/25 11:05:57;;;;;;;;;2.00;2.00;;;;;20.77;57.64;101193.41;5070692;28;8823;-66
2022/06/25 11:08:34;;;;;;;;;1.25;1.00;;;;;20.79;57.94;101194.81;5056368;28;8952;-65
2022/06/25 11:11:03;;;;;;;;;1.75;1.25;;;;;20.69;57.62;101191.94;5054736;28;8830;-65
2022/06/25 11:13:30;;;;;;;;;1.75;1.75;;;;;20.60;58.19;101190.72;5058435;28;8958;-66
2022/06/25 11:15:57;;;;;;;;;2.00;2.00;;;;;20.63;58.54;101188.31;5062022;28;8826;-65
2022/06/25 11:18:23;;;;;;;;;2.25;2.25;;;;;20.73;58.64;101185.69;5062704;28;8843;-65
2022/06/25 11:20:51;;;;;;;;;1.00;1.00;;;;;20.83;58.61;101182.28;5067880;28;8817;-65
2022/06/25 11:23:17;;;;;;;;;3.75;2.25;;;;;20.87;58.41;101177.13;5065153;28;8815;-66
2022/06/25 11:28:53;;;;;;;;;1.50;1.50;;;;;20.86;57.89;101184.50;5056941;28;8830;-66
2022/06/25 11:31:24;;;;;;;;;5.25;1.75;;;;;20.93;56.97;101192.53;5054656;28;8814;-66
2022/06/25 11:33:52;;;;;;;;;1.00;1.00;;;;;20.99;56.54;101189.59;5053852;28;9547;-66
2022/06/25 11:36:20;;;;;;;;;1.50;1.00;;;;;21.13;56.33;101195.50;5067317;28;8827;-66
2022/06/25 11:38:54;;;;;;;;;0.00;0.00;;;;;21.23;56.36;101189.34;5069024;28;8856;-65
2022/06/25 11:41:26;;;;;;;;;1.25;1.25;;;;;21.31;55.90;101204.47;5067032;28;8905;-66
2022/06/25 11:43:54;;;;;;;;;0.50;0.50;;;;;21.26;56.12;101201.66;5060029;28;9662;-66
2022/06/25 11:46:20;;;;;;;;;2.75;2.75;;;;;21.22;55.89;101199.44;5064251;28;8831;-66
2022/06/25 11:48:48;;;;;;;;;3.00;3.00;;;;;21.27;55.97;101198.69;5062200;28;8810;-65
2022/06/25 11:51:23;;;;;;;;;3.00;2.00;;;;;21.23;56.08;101192.91;5064055;28;8830;-66
2022/06/25 11:53:54;;;;;;;;;3.25;2.00;;;;;21.33;56.76;101192.19;5064109;28;8822;-66